createdAt,value
2018-12-22T07:37:30.292Z,7.40
2018-12-22T07:39:59.573Z,7.03
2018-12-22T07:42:28.019Z,8.47
2018-12-22T07:44:56.667Z,8.27
2018-12-22T07:47:25.401Z,7.93
2018-12-22T07:49:53.746Z,8.20
2018-12-22T07:52:22.194Z,8.77
2018-12-22T07:54:50.848Z,8.73
2018-12-22T07:57:19.277Z,8.23
2018-12-22T07:59:47.772Z,8.07
2018-12-22T08:02:16.590Z,9.43
2018-12-22T08:04:44.946Z,7.93
2018-12-22T08:07:13.624Z,8.50
2018-12-22T08:09:42.745Z,8.53
2018-12-22T08:12:11.328Z,8.90
2018-12-22T08:14:40.012Z,8.07
2018-12-22T08:17:09.004Z,8.30
2018-12-22T08:19:37.574Z,8.37
2018-12-22T08:22:06.080Z,7.87
2018-12-22T08:24:34.876Z,7.90
2018-12-22T08:27:03.244Z,8.47
2018-12-22T08:29:31.602Z,8.30
2018-12-22T08:32:00.191Z,8.13
2018-12-22T08:34:28.569Z,7.43
2018-12-22T08:36:57.798Z,8.53
2018-12-22T08:39:26.701Z,7.60
2018-12-22T08:41:55.132Z,8.50
2018-12-22T08:44:23.507Z,8.07
2018-12-22T08:46:52.297Z,9.00
2018-12-22T08:49:20.677Z,8.67
2018-12-22T08:51:49.295Z,9.23
2018-12-22T08:54:18.050Z,10.27
2018-12-22T08:56:46.832Z,9.33
2018-12-22T08:59:15.157Z,9.60
2018-12-22T09:01:43.588Z,9.10
2018-12-22T09:04:12.479Z,9.77
2018-12-22T09:06:40.862Z,10.07
2018-12-22T09:09:09.403Z,9.03
2018-12-22T09:11:37.823Z,10.03
2018-12-22T09:14:06.207Z,10.63
2018-12-22T09:16:34.984Z,9.07
2018-12-22T09:19:03.388Z,9.73
2018-12-22T09:21:31.883Z,9.03
2018-12-22T09:24:00.584Z,8.97
2018-12-22T09:26:28.946Z,9.37
2018-12-22T09:28:57.345Z,9.40
2018-12-22T09:31:25.859Z,8.73
2018-12-22T09:33:54.182Z,9.27
2018-12-22T09:36:22.573Z,9.33
2018-12-22T09:38:51.151Z,8.33
2018-12-22T09:41:19.461Z,7.93
2018-12-22T09:43:48.018Z,8.77
2018-12-22T09:46:17.049Z,8.80
2018-12-22T09:48:45.560Z,8.47
2018-12-22T09:51:13.883Z,8.87
2018-12-22T09:53:42.795Z,8.73
2018-12-22T09:56:11.427Z,9.20
2018-12-22T09:58:40.365Z,9.07
2018-12-22T10:01:09.670Z,9.30
2018-12-22T10:03:37.680Z,8.53
2018-12-22T10:06:06.076Z,9.20
2018-12-22T10:08:34.754Z,9.77
2018-12-22T10:11:03.326Z,9.10
2018-12-22T10:13:31.761Z,9.43
2018-12-22T10:16:00.291Z,9.57
2018-12-22T10:18:28.725Z,8.97
2018-12-22T10:20:57.281Z,9.20
2018-12-22T10:23:26.088Z,8.97
2018-12-22T10:25:54.421Z,8.60
2018-12-22T10:28:22.923Z,8.60
2018-12-22T10:30:51.838Z,8.73
2018-12-22T10:33:20.340Z,8.37
2018-12-22T10:35:48.752Z,7.97
2018-12-22T10:38:17.581Z,8.70
2018-12-22T10:40:46.145Z,9.20
2018-12-22T10:43:14.493Z,8.67
2018-12-22T10:45:43.192Z,8.37
2018-12-22T10:48:11.537Z,7.40
2018-12-22T10:50:40.016Z,8.23
2018-12-22T10:53:08.967Z,8.90
2018-12-22T10:55:37.574Z,8.67
2018-12-22T10:58:06.134Z,8.87
2018-12-22T11:00:34.829Z,8.27
2018-12-22T11:03:03.455Z,9.43
2018-12-22T11:05:31.866Z,8.83
2018-12-22T11:08:00.425Z,7.57
2018-12-22T11:10:29.146Z,8.10
2018-12-22T11:12:59.897Z,8.37
2018-12-22T11:15:28.781Z,9.07
2018-12-22T11:17:57.272Z,8.30
2018-12-22T11:20:25.600Z,8.00
2018-12-22T11:22:54.523Z,8.60
2018-12-22T11:25:24.882Z,7.40
2018-12-22T11:27:53.245Z,7.53
2018-12-22T11:30:30.135Z,8.53
2018-12-22T11:32:58.738Z,7.90
2018-12-22T11:35:27.101Z,8.17
2018-12-22T11:37:55.822Z,7.63
2018-12-22T11:40:24.242Z,7.03
2018-12-22T11:42:52.831Z,7.70
2018-12-22T11:45:21.467Z,8.17
2018-12-22T11:49:59.917Z,7.97
2018-12-22T11:52:28.910Z,7.57
2018-12-22T11:54:57.289Z,7.43
2018-12-22T11:57:25.664Z,8.13
2018-12-22T11:59:54.969Z,7.60
2018-12-22T12:02:23.532Z,8.43
2018-12-22T12:04:52.431Z,7.80
2018-12-22T12:07:21.326Z,7.43
2018-12-22T12:09:49.963Z,8.17
2018-12-22T12:12:18.429Z,7.47
2018-12-22T12:14:47.381Z,8.13
2018-12-22T12:19:29.592Z,7.23
2018-12-22T12:21:58.256Z,7.60
2018-12-22T12:24:27.534Z,8.10
2018-12-22T12:26:55.958Z,7.90
2018-12-22T12:29:24.602Z,8.40
2018-12-22T12:31:53.072Z,7.73
2018-12-22T12:34:21.831Z,7.17
2018-12-22T12:36:50.687Z,8.20
2018-12-22T12:39:19.144Z,7.53
2018-12-22T12:41:47.609Z,6.73
2018-12-22T12:44:16.105Z,7.80
2018-12-22T12:46:49.286Z,6.43
2018-12-22T12:49:18.686Z,6.60
2018-12-22T12:51:47.130Z,8.10
2018-12-22T12:54:15.895Z,8.20
2018-12-22T12:56:48.588Z,7.73
2018-12-22T12:59:16.899Z,7.47
2018-12-22T13:01:45.231Z,7.87
2018-12-22T13:04:14.185Z,8.23
2018-12-22T13:06:42.647Z,8.17
2018-12-22T13:09:11.353Z,8.20
2018-12-22T13:11:39.921Z,7.83
2018-12-22T13:14:11.782Z,7.37
2018-12-22T13:16:40.216Z,7.13
2018-12-22T13:19:09.206Z,8.80
2018-12-22T13:21:38.824Z,8.13
2018-12-22T13:24:07.462Z,8.17
2018-12-22T13:26:36.847Z,7.33
2018-12-22T13:29:04.481Z,7.53
2018-12-22T13:31:32.926Z,8.47
2018-12-22T13:34:01.429Z,7.47
2018-12-22T13:36:34.434Z,7.17
2018-12-22T13:39:03.391Z,8.20
2018-12-22T13:41:31.958Z,7.07
2018-12-22T13:44:00.597Z,7.73
2018-12-22T13:46:29.638Z,7.70
2018-12-22T13:48:58.137Z,8.80
2018-12-22T13:51:26.669Z,7.57
2018-12-22T13:53:55.242Z,8.33
2018-12-22T13:56:23.603Z,7.43
2018-12-22T13:58:52.006Z,7.87
2018-12-22T14:01:21.852Z,7.73
2018-12-22T14:03:51.006Z,7.97
2018-12-22T14:06:23.226Z,7.97
2018-12-22T14:08:51.798Z,7.83
2018-12-22T14:11:20.219Z,7.60
2018-12-22T14:13:49.026Z,7.97
2018-12-22T14:16:23.345Z,7.27
2018-12-22T14:19:04.515Z,7.67
2018-12-22T14:21:32.838Z,8.17
2018-12-22T14:24:13.087Z,7.53
2018-12-22T14:26:41.697Z,6.97
2018-12-22T14:29:10.157Z,7.03
2018-12-22T14:31:38.836Z,7.20
2018-12-22T14:34:11.819Z,7.57
2018-12-22T14:36:40.505Z,7.53
2018-12-22T14:39:09.726Z,6.97
2018-12-22T14:41:38.255Z,7.60
2018-12-22T14:44:07.178Z,8.13
2018-12-22T14:46:35.955Z,6.87
2018-12-22T14:49:04.659Z,7.23
2018-12-22T14:51:33.543Z,7.23
2018-12-22T14:54:02.123Z,6.90
2018-12-22T14:56:35.975Z,6.80
2018-12-22T14:59:05.123Z,7.10
2018-12-22T15:01:33.449Z,6.90
2018-12-22T15:04:02.184Z,7.00
2018-12-22T15:06:30.558Z,6.90
2018-12-22T15:08:59.134Z,6.63
2018-12-22T15:11:27.940Z,6.83
2018-12-22T15:13:56.296Z,7.40
2018-12-22T15:16:24.658Z,7.77
2018-12-22T15:18:53.677Z,7.70
2018-12-22T15:21:22.139Z,7.03
2018-12-22T15:23:50.460Z,10.83
2018-12-22T15:26:19.021Z,15.00
2018-12-22T15:28:47.512Z,6.30
2018-12-22T15:31:15.868Z,12.93
2018-12-22T15:33:44.420Z,5.37
2018-12-22T15:36:12.888Z,6.60
2018-12-22T15:38:41.466Z,6.77
2018-12-22T15:41:10.168Z,11.47
2018-12-22T15:43:38.515Z,6.97
2018-12-22T15:46:06.953Z,7.60
2018-12-22T15:48:35.916Z,16.37
2018-12-22T15:51:04.429Z,10.83
2018-12-22T15:53:32.838Z,9.30
2018-12-22T15:56:01.682Z,7.93
2018-12-22T15:58:30.087Z,13.07
2018-12-22T16:00:58.754Z,12.43
2018-12-22T16:03:27.432Z,12.43
2018-12-22T16:05:56.097Z,14.47
2018-12-22T16:08:24.622Z,14.83
2018-12-22T16:10:53.475Z,11.20
2018-12-22T16:13:21.872Z,21.37
2018-12-22T16:15:50.614Z,13.87
2018-12-22T16:18:19.197Z,10.77
2018-12-22T16:20:47.687Z,12.20
2018-12-22T16:23:16.337Z,10.50
2018-12-22T16:25:44.857Z,10.27
2018-12-22T16:28:19.824Z,10.87
2018-12-22T16:30:51.680Z,10.27
2018-12-22T16:33:20.180Z,9.73
2018-12-22T16:35:48.719Z,8.47
2018-12-22T16:38:17.615Z,8.67
2018-12-22T16:40:46.161Z,9.03
2018-12-22T16:43:15.894Z,8.13
2018-12-22T16:45:47.941Z,8.40
2018-12-22T16:48:16.670Z,8.33
2018-12-22T16:50:46.265Z,7.23
2018-12-22T16:53:15.049Z,7.50
2018-12-22T16:55:43.726Z,7.00
2018-12-22T16:58:34.151Z,6.80
2018-12-22T17:01:24.165Z,6.03
2018-12-22T17:03:52.974Z,6.30
2018-12-22T17:06:21.430Z,6.13
2018-12-22T17:08:49.827Z,6.37
2018-12-22T17:11:18.896Z,5.47
2018-12-22T17:13:48.412Z,6.20
2018-12-22T17:16:17.351Z,6.10
2018-12-22T17:18:45.861Z,4.87
2018-12-22T17:21:25.852Z,5.93
2018-12-22T17:24:02.707Z,5.17
2018-12-22T17:26:33.324Z,6.20
2018-12-22T17:29:01.669Z,4.93
2018-12-22T17:31:30.472Z,5.40
2018-12-22T17:33:59.095Z,5.57
2018-12-22T17:36:27.831Z,5.60
2018-12-22T17:38:57.134Z,5.83
2018-12-22T17:41:25.728Z,4.90
2018-12-22T17:43:54.131Z,5.70
2018-12-22T17:46:22.731Z,5.73
2018-12-22T17:48:51.289Z,5.27
2018-12-22T17:51:19.716Z,5.20
2018-12-22T17:53:48.623Z,5.13
2018-12-22T17:56:17.202Z,5.70
2018-12-22T17:58:45.558Z,5.10
2018-12-22T18:01:14.243Z,5.17
2018-12-22T18:03:42.575Z,5.70
2018-12-22T18:06:11.257Z,5.73
2018-12-22T18:08:40.117Z,5.27
2018-12-22T18:11:08.740Z,6.20
2018-12-22T18:13:37.441Z,5.83
2018-12-22T18:16:05.863Z,5.90
2018-12-22T18:18:34.520Z,5.33
2018-12-22T18:21:02.975Z,5.37
2018-12-22T18:23:31.921Z,5.80
2018-12-22T18:26:00.282Z,5.83
2018-12-22T18:28:28.663Z,5.57
2018-12-22T18:30:57.531Z,5.13
2018-12-22T18:33:25.841Z,5.27
2018-12-22T18:35:54.688Z,4.83
2018-12-22T18:38:23.290Z,4.77
2018-12-22T18:40:51.637Z,5.27
2018-12-22T18:43:20.420Z,5.33
2018-12-22T18:45:49.210Z,5.47
2018-12-22T18:48:17.595Z,5.10
2018-12-22T18:50:46.196Z,4.97
2018-12-22T18:53:15.091Z,5.77
2018-12-22T18:55:43.490Z,5.27
2018-12-22T18:58:12.854Z,4.80
2018-12-22T19:00:41.426Z,5.07
2018-12-22T19:03:10.103Z,4.03
2018-12-22T19:05:38.538Z,4.87
2018-12-22T19:08:10.933Z,5.63
2018-12-22T19:10:42.519Z,4.63
2018-12-22T19:13:11.133Z,5.27
2018-12-22T19:15:40.150Z,4.60
2018-12-22T19:18:08.544Z,6.00
2018-12-22T19:20:47.499Z,5.80
2018-12-22T19:23:16.633Z,5.47
2018-12-22T19:25:45.201Z,5.30
2018-12-22T19:28:14.184Z,5.30
2018-12-22T19:30:44.424Z,5.23
2018-12-22T19:33:11.408Z,6.20
2018-12-22T19:35:40.205Z,5.80
2018-12-22T19:38:08.737Z,5.97
2018-12-22T19:40:37.231Z,6.47
2018-12-22T19:43:05.858Z,5.23
2018-12-22T19:45:34.265Z,5.30
2018-12-22T19:48:02.826Z,5.90
2018-12-22T19:50:31.411Z,5.83
2018-12-22T19:52:59.858Z,6.60
2018-12-22T19:55:28.725Z,5.50
2018-12-22T19:57:57.915Z,5.33
2018-12-22T20:00:26.267Z,4.93
2018-12-22T20:02:55.398Z,6.13
2018-12-22T20:05:23.848Z,5.53
2018-12-22T20:07:52.178Z,5.20
2018-12-22T20:10:20.727Z,5.73
2018-12-22T20:12:49.577Z,5.27
2018-12-22T20:15:17.936Z,5.03
2018-12-22T20:17:46.294Z,5.13
2018-12-22T20:20:14.713Z,5.10
2018-12-22T20:22:43.110Z,5.07
2018-12-22T20:25:12.472Z,5.80
2018-12-22T20:27:41.518Z,5.17
2018-12-22T20:30:10.374Z,4.47
2018-12-22T20:32:39.394Z,4.83
2018-12-22T20:35:08.167Z,4.27
2018-12-22T20:37:36.543Z,4.27
2018-12-22T20:40:05.653Z,4.27
2018-12-22T20:42:34.429Z,4.37
2018-12-22T20:45:02.754Z,3.40
2018-12-22T20:47:31.132Z,4.37
2018-12-22T20:49:59.846Z,4.20
2018-12-22T20:52:28.269Z,3.77
2018-12-22T20:54:56.747Z,4.17
2018-12-22T20:57:25.741Z,4.17
2018-12-22T20:59:54.233Z,3.70
2018-12-22T21:02:22.635Z,3.50
2018-12-22T21:04:51.932Z,3.93
2018-12-22T21:07:20.342Z,3.77
2018-12-22T21:09:49.169Z,3.60
2018-12-22T21:12:18.151Z,3.63
2018-12-22T21:14:46.814Z,4.13
2018-12-22T21:17:16.052Z,3.63
2018-12-22T21:19:44.822Z,4.13
2018-12-22T21:22:13.164Z,3.87
2018-12-22T21:24:41.577Z,3.50
2018-12-22T21:27:10.107Z,3.40
2018-12-22T21:29:38.484Z,3.67
2018-12-22T21:32:06.958Z,2.73
2018-12-22T21:34:35.674Z,4.00
2018-12-22T21:37:04.152Z,3.63
2018-12-22T21:39:32.506Z,3.83
2018-12-22T21:42:00.978Z,3.43
2018-12-22T21:44:29.393Z,3.90
2018-12-22T21:46:58.406Z,4.13
2018-12-22T21:49:27.041Z,4.30
2018-12-22T21:51:55.878Z,4.00
2018-12-22T21:54:24.257Z,4.10
2018-12-22T21:56:52.940Z,4.30
2018-12-22T21:59:21.262Z,3.97
2018-12-22T22:01:49.607Z,3.53
2018-12-22T22:04:18.224Z,3.97
2018-12-22T22:06:46.551Z,3.73
2018-12-22T22:09:14.921Z,3.43
2018-12-22T22:11:43.857Z,3.90
2018-12-22T22:14:12.264Z,4.03
2018-12-22T22:16:40.575Z,4.07
2018-12-22T22:19:09.129Z,4.23
2018-12-22T22:21:38.077Z,3.30
2018-12-22T22:24:06.413Z,4.50
2018-12-22T22:26:35.171Z,3.87
2018-12-22T22:29:03.593Z,4.20
2018-12-22T22:31:31.928Z,4.10
2018-12-22T22:34:00.604Z,3.90
2018-12-22T22:36:28.978Z,4.43
2018-12-22T22:38:57.278Z,4.10
2018-12-22T22:41:25.889Z,3.67
2018-12-22T22:43:54.736Z,4.00
2018-12-22T22:46:23.086Z,3.30
2018-12-22T22:48:51.945Z,4.10
2018-12-22T22:51:20.456Z,4.00
2018-12-22T22:53:48.756Z,4.97
2018-12-22T22:56:17.695Z,3.60
2018-12-22T22:58:46.008Z,3.77
2018-12-22T23:01:14.444Z,3.77
2018-12-22T23:03:43.129Z,4.43
2018-12-22T23:06:11.507Z,3.60
2018-12-22T23:08:39.896Z,4.23
2018-12-22T23:11:08.877Z,3.53
2018-12-22T23:13:37.669Z,4.47
2018-12-22T23:16:05.986Z,4.93
2018-12-22T23:18:34.468Z,3.93
2018-12-22T23:21:03.145Z,3.53
2018-12-22T23:23:31.549Z,4.27
2018-12-22T23:26:00.372Z,4.73
2018-12-22T23:28:28.665Z,4.17
2018-12-22T23:30:56.999Z,4.07
2018-12-22T23:33:25.668Z,4.70
2018-12-22T23:35:54.019Z,4.33
2018-12-22T23:38:22.418Z,4.33
2018-12-22T23:40:51.110Z,4.57
2018-12-22T23:43:19.500Z,4.03
2018-12-22T23:45:47.868Z,4.27
2018-12-22T23:48:17.611Z,4.40
2018-12-22T23:50:46.171Z,3.40
2018-12-22T23:53:14.486Z,4.33
2018-12-22T23:55:43.358Z,4.53
2018-12-22T23:58:11.883Z,4.30
